sensor_id;sensor_type;location;lat;lon;timestamp;P1;durP1;ratioP1;P2;durP2;ratioP2
41480;SDS011;27217;51.220;5.308;2023-05-10T00:01:33;1.15;;;0.93;;
41480;SDS011;27217;51.220;5.308;2023-05-10T00:04:02;0.30;;;0.30;;
41480;SDS011;27217;51.220;5.308;2023-05-10T00:06:28;0.90;;;0.75;;
41480;SDS011;27217;51.220;5.308;2023-05-10T00:08:54;2.20;;;1.60;;
41480;SDS011;27217;51.220;5.308;2023-05-10T00:11:20;0.20;;;0.20;;
41480;SDS011;27217;51.220;5.308;2023-05-10T00:13:46;0.50;;;0.50;;
41480;SDS011;27217;51.220;5.308;2023-05-10T00:16:12;1.02;;;1.02;;
41480;SDS011;27217;51.220;5.308;2023-05-10T00:18:38;1.20;;;0.90;;
41480;SDS011;27217;51.220;5.308;2023-05-10T00:21:04;0.35;;;0.35;;
41480;SDS011;27217;51.220;5.308;2023-05-10T00:23:30;1.15;;;0.55;;
41480;SDS011;27217;51.220;5.308;2023-05-10T00:25:56;0.65;;;0.65;;
41480;SDS011;27217;51.220;5.308;2023-05-10T00:28:22;0.35;;;0.35;;
41480;SDS011;27217;51.220;5.308;2023-05-10T00:30:48;0.43;;;0.43;;
41480;SDS011;27217;51.220;5.308;2023-05-10T00:33:14;0.30;;;0.30;;
41480;SDS011;27217;51.220;5.308;2023-05-10T00:35:40;0.55;;;0.55;;
41480;SDS011;27217;51.220;5.308;2023-05-10T00:38:06;1.40;;;1.23;;
41480;SDS011;27217;51.220;5.308;2023-05-10T00:40:32;1.58;;;1.48;;
41480;SDS011;27217;51.220;5.308;2023-05-10T00:42:58;1.60;;;1.50;;
41480;SDS011;27217;51.220;5.308;2023-05-10T00:45:25;5.05;;;2.38;;
41480;SDS011;27217;51.220;5.308;2023-05-10T00:47:51;2.92;;;1.27;;
41480;SDS011;27217;51.220;5.308;2023-05-10T00:50:20;1.85;;;1.40;;
41480;SDS011;27217;51.220;5.308;2023-05-10T00:52:49;1.70;;;1.52;;
41480;SDS011;27217;51.220;5.308;2023-05-10T00:55:15;1.63;;;1.52;;
41480;SDS011;27217;51.220;5.308;2023-05-10T00:57:41;0.93;;;0.93;;
41480;SDS011;27217;51.220;5.308;2023-05-10T01:00:07;1.10;;;1.10;;
41480;SDS011;27217;51.220;5.308;2023-05-10T01:02:34;0.52;;;0.52;;
41480;SDS011;27217;51.220;5.308;2023-05-10T01:05:01;1.15;;;1.13;;
41480;SDS011;27217;51.220;5.308;2023-05-10T01:07:28;0.65;;;0.65;;
41480;SDS011;27217;51.220;5.308;2023-05-10T01:09:54;0.73;;;0.73;;
41480;SDS011;27217;51.220;5.308;2023-05-10T01:12:21;0.95;;;0.90;;
41480;SDS011;27217;51.220;5.308;2023-05-10T01:14:47;0.47;;;0.47;;
41480;SDS011;27217;51.220;5.308;2023-05-10T01:17:13;1.75;;;1.02;;
41480;SDS011;27217;51.220;5.308;2023-05-10T01:19:39;2.30;;;1.65;;
41480;SDS011;27217;51.220;5.308;2023-05-10T01:31:07;1.10;;;1.10;;
41480;SDS011;27217;51.220;5.308;2023-05-10T01:33:52;2.97;;;1.38;;
41480;SDS011;27217;51.220;5.308;2023-05-10T01:36:27;1.92;;;1.45;;
41480;SDS011;27217;51.220;5.308;2023-05-10T01:39:01;2.63;;;1.20;;
41480;SDS011;27217;51.220;5.308;2023-05-10T01:44:01;0.50;;;0.50;;
41480;SDS011;27217;51.220;5.308;2023-05-10T01:46:31;3.13;;;2.20;;
41480;SDS011;27217;51.220;5.308;2023-05-10T01:49:01;0.28;;;0.28;;
41480;SDS011;27217;51.220;5.308;2023-05-10T01:51:31;19.45;;;5.20;;
41480;SDS011;27217;51.220;5.308;2023-05-10T01:54:06;2.15;;;2.08;;
41480;SDS011;27217;51.220;5.308;2023-05-10T01:56:34;2.53;;;2.33;;
41480;SDS011;27217;51.220;5.308;2023-05-10T01:59:04;1.92;;;1.30;;
41480;SDS011;27217;51.220;5.308;2023-05-10T02:01:38;4.32;;;1.98;;
41480;SDS011;27217;51.220;5.308;2023-05-10T02:04:06;1.08;;;1.08;;
41480;SDS011;27217;51.220;5.308;2023-05-10T02:06:33;0.35;;;0.35;;
41480;SDS011;27217;51.220;5.308;2023-05-10T02:09:01;1.05;;;1.05;;
41480;SDS011;27217;51.220;5.308;2023-05-10T02:11:28;4.15;;;1.80;;
41480;SDS011;27217;51.220;5.308;2023-05-10T02:13:55;1.20;;;1.20;;
41480;SDS011;27217;51.220;5.308;2023-05-10T02:16:24;8.18;;;1.33;;
41480;SDS011;27217;51.220;5.308;2023-05-10T02:18:51;4.47;;;1.30;;
41480;SDS011;27217;51.220;5.308;2023-05-10T02:21:19;1.42;;;1.35;;
41480;SDS011;27217;51.220;5.308;2023-05-10T02:23:46;1.30;;;1.30;;
41480;SDS011;27217;51.220;5.308;2023-05-10T02:26:15;8.65;;;3.33;;
41480;SDS011;27217;51.220;5.308;2023-05-10T02:28:43;1.90;;;1.80;;
41480;SDS011;27217;51.220;5.308;2023-05-10T02:31:09;0.73;;;0.73;;
41480;SDS011;27217;51.220;5.308;2023-05-10T02:33:38;10.63;;;3.17;;
41480;SDS011;27217;51.220;5.308;2023-05-10T02:36:05;1.73;;;1.63;;
41480;SDS011;27217;51.220;5.308;2023-05-10T02:38:34;1.73;;;1.67;;
41480;SDS011;27217;51.220;5.308;2023-05-10T02:41:01;1.73;;;1.65;;
41480;SDS011;27217;51.220;5.308;2023-05-10T02:43:31;4.07;;;2.10;;
41480;SDS011;27217;51.220;5.308;2023-05-10T02:45:58;2.90;;;2.67;;
41480;SDS011;27217;51.220;5.308;2023-05-10T02:48:24;0.50;;;0.50;;
41480;SDS011;27217;51.220;5.308;2023-05-10T02:50:50;3.00;;;2.75;;
41480;SDS011;27217;51.220;5.308;2023-05-10T02:53:20;2.95;;;2.50;;
41480;SDS011;27217;51.220;5.308;2023-05-10T02:55:49;3.17;;;2.88;;
41480;SDS011;27217;51.220;5.308;2023-05-10T02:58:18;3.05;;;2.05;;
41480;SDS011;27217;51.220;5.308;2023-05-10T03:00:47;2.25;;;1.75;;
41480;SDS011;27217;51.220;5.308;2023-05-10T03:03:13;5.63;;;3.30;;
41480;SDS011;27217;51.220;5.308;2023-05-10T03:05:38;1.02;;;1.02;;
41480;SDS011;27217;51.220;5.308;2023-05-10T03:08:07;1.45;;;1.35;;
41480;SDS011;27217;51.220;5.308;2023-05-10T03:10:33;0.47;;;0.47;;
41480;SDS011;27217;51.220;5.308;2023-05-10T03:13:25;2.83;;;2.65;;
41480;SDS011;27217;51.220;5.308;2023-05-10T03:21:47;9.82;;;1.55;;
41480;SDS011;27217;51.220;5.308;2023-05-10T03:24:18;1.45;;;1.40;;
41480;SDS011;27217;51.220;5.308;2023-05-10T03:26:49;1.20;;;1.17;;
41480;SDS011;27217;51.220;5.308;2023-05-10T03:29:16;0.28;;;0.28;;
41480;SDS011;27217;51.220;5.308;2023-05-10T03:31:43;6.20;;;4.85;;
41480;SDS011;27217;51.220;5.308;2023-05-10T03:34:09;2.08;;;1.95;;
41480;SDS011;27217;51.220;5.308;2023-05-10T03:36:36;9.90;;;3.30;;
41480;SDS011;27217;51.220;5.308;2023-05-10T03:39:01;1.92;;;1.83;;
41480;SDS011;27217;51.220;5.308;2023-05-10T03:41:27;1.27;;;1.25;;
41480;SDS011;27217;51.220;5.308;2023-05-10T03:43:53;3.60;;;2.25;;
41480;SDS011;27217;51.220;5.308;2023-05-10T03:46:19;7.32;;;3.45;;
41480;SDS011;27217;51.220;5.308;2023-05-10T03:48:45;0.88;;;0.88;;
41480;SDS011;27217;51.220;5.308;2023-05-10T03:51:15;1.13;;;1.13;;
41480;SDS011;27217;51.220;5.308;2023-05-10T03:53:40;8.30;;;2.60;;
41480;SDS011;27217;51.220;5.308;2023-05-10T03:56:07;10.35;;;1.52;;
41480;SDS011;27217;51.220;5.308;2023-05-10T03:58:32;1.77;;;1.67;;
41480;SDS011;27217;51.220;5.308;2023-05-10T04:00:58;0.32;;;0.32;;
41480;SDS011;27217;51.220;5.308;2023-05-10T04:03:24;1.52;;;1.42;;
41480;SDS011;27217;51.220;5.308;2023-05-10T04:05:58;0.20;;;0.20;;
41480;SDS011;27217;51.220;5.308;2023-05-10T04:08:25;1.63;;;1.52;;
41480;SDS011;27217;51.220;5.308;2023-05-10T04:10:51;0.95;;;0.95;;
41480;SDS011;27217;51.220;5.308;2023-05-10T04:13:17;13.85;;;3.00;;
41480;SDS011;27217;51.220;5.308;2023-05-10T04:15:43;0.93;;;0.93;;
41480;SDS011;27217;51.220;5.308;2023-05-10T04:18:10;0.93;;;0.93;;
41480;SDS011;27217;51.220;5.308;2023-05-10T04:20:36;0.17;;;0.17;;
41480;SDS011;27217;51.220;5.308;2023-05-10T04:23:02;5.97;;;2.17;;
41480;SDS011;27217;51.220;5.308;2023-05-10T04:25:28;0.73;;;0.73;;
41480;SDS011;27217;51.220;5.308;2023-05-10T04:27:54;0.65;;;0.65;;
41480;SDS011;27217;51.220;5.308;2023-05-10T04:30:19;1.88;;;1.77;;
41480;SDS011;27217;51.220;5.308;2023-05-10T04:32:45;0.40;;;0.40;;
41480;SDS011;27217;51.220;5.308;2023-05-10T04:35:11;1.10;;;1.10;;
41480;SDS011;27217;51.220;5.308;2023-05-10T04:37:39;1.17;;;1.17;;
41480;SDS011;27217;51.220;5.308;2023-05-10T04:40:06;0.90;;;0.88;;
41480;SDS011;27217;51.220;5.308;2023-05-10T04:42:34;4.80;;;2.60;;
41480;SDS011;27217;51.220;5.308;2023-05-10T04:45:00;10.15;;;4.82;;
41480;SDS011;27217;51.220;5.308;2023-05-10T04:47:27;1.50;;;1.40;;
41480;SDS011;27217;51.220;5.308;2023-05-10T04:49:53;1.70;;;1.63;;
41480;SDS011;27217;51.220;5.308;2023-05-10T04:52:19;1.02;;;0.93;;
41480;SDS011;27217;51.220;5.308;2023-05-10T04:54:45;1.85;;;1.10;;
41480;SDS011;27217;51.220;5.308;2023-05-10T04:57:12;2.50;;;2.38;;
41480;SDS011;27217;51.220;5.308;2023-05-10T04:59:38;1.45;;;0.60;;
41480;SDS011;27217;51.220;5.308;2023-05-10T05:02:04;1.55;;;1.45;;
41480;SDS011;27217;51.220;5.308;2023-05-10T05:04:30;0.60;;;0.60;;
41480;SDS011;27217;51.220;5.308;2023-05-10T05:06:56;2.00;;;1.88;;
41480;SDS011;27217;51.220;5.308;2023-05-10T05:09:22;2.20;;;2.10;;
41480;SDS011;27217;51.220;5.308;2023-05-10T05:11:48;1.40;;;1.38;;
41480;SDS011;27217;51.220;5.308;2023-05-10T05:14:13;1.70;;;1.67;;
41480;SDS011;27217;51.220;5.308;2023-05-10T05:16:40;1.65;;;1.50;;
41480;SDS011;27217;51.220;5.308;2023-05-10T05:19:05;2.08;;;1.65;;
41480;SDS011;27217;51.220;5.308;2023-05-10T05:21:31;2.88;;;2.28;;
41480;SDS011;27217;51.220;5.308;2023-05-10T05:23:58;3.00;;;1.75;;
41480;SDS011;27217;51.220;5.308;2023-05-10T05:26:23;13.25;;;3.53;;
41480;SDS011;27217;51.220;5.308;2023-05-10T05:28:50;3.70;;;2.60;;
41480;SDS011;27217;51.220;5.308;2023-05-10T05:31:18;0.98;;;0.70;;
41480;SDS011;27217;51.220;5.308;2023-05-10T05:33:44;0.82;;;0.82;;
41480;SDS011;27217;51.220;5.308;2023-05-10T05:36:10;1.88;;;1.77;;
41480;SDS011;27217;51.220;5.308;2023-05-10T05:38:36;0.85;;;0.85;;
41480;SDS011;27217;51.220;5.308;2023-05-10T05:41:02;2.28;;;2.17;;
41480;SDS011;27217;51.220;5.308;2023-05-10T05:43:28;2.33;;;1.48;;
41480;SDS011;27217;51.220;5.308;2023-05-10T05:45:54;1.25;;;1.20;;
41480;SDS011;27217;51.220;5.308;2023-05-10T05:48:20;1.38;;;1.27;;
41480;SDS011;27217;51.220;5.308;2023-05-10T05:50:46;4.30;;;2.78;;
41480;SDS011;27217;51.220;5.308;2023-05-10T05:53:12;2.03;;;1.17;;
41480;SDS011;27217;51.220;5.308;2023-05-10T05:55:38;1.75;;;1.65;;
41480;SDS011;27217;51.220;5.308;2023-05-10T05:58:04;2.33;;;0.90;;
41480;SDS011;27217;51.220;5.308;2023-05-10T06:00:29;1.30;;;1.30;;
41480;SDS011;27217;51.220;5.308;2023-05-10T06:02:56;0.45;;;0.45;;
41480;SDS011;27217;51.220;5.308;2023-05-10T06:05:22;1.25;;;1.15;;
41480;SDS011;27217;51.220;5.308;2023-05-10T06:07:47;2.33;;;2.22;;
41480;SDS011;27217;51.220;5.308;2023-05-10T06:10:13;0.68;;;0.68;;
41480;SDS011;27217;51.220;5.308;2023-05-10T06:12:42;60.72;;;25.63;;
41480;SDS011;27217;51.220;5.308;2023-05-10T06:15:07;64.18;;;25.40;;
41480;SDS011;27217;51.220;5.308;2023-05-10T06:17:34;64.63;;;26.92;;
41480;SDS011;27217;51.220;5.308;2023-05-10T06:19:59;57.30;;;26.65;;
41480;SDS011;27217;51.220;5.308;2023-05-10T06:22:25;56.13;;;24.27;;
41480;SDS011;27217;51.220;5.308;2023-05-10T06:24:51;57.30;;;24.85;;
41480;SDS011;27217;51.220;5.308;2023-05-10T06:27:16;55.90;;;23.40;;
41480;SDS011;27217;51.220;5.308;2023-05-10T06:29:42;58.60;;;24.20;;
41480;SDS011;27217;51.220;5.308;2023-05-10T06:32:08;55.15;;;22.05;;
41480;SDS011;27217;51.220;5.308;2023-05-10T06:34:33;57.13;;;21.83;;
41480;SDS011;27217;51.220;5.308;2023-05-10T06:36:59;43.58;;;19.48;;
41480;SDS011;27217;51.220;5.308;2023-05-10T06:39:25;46.33;;;19.05;;
41480;SDS011;27217;51.220;5.308;2023-05-10T06:41:50;42.53;;;20.33;;
41480;SDS011;27217;51.220;5.308;2023-05-10T06:44:16;41.65;;;20.23;;
41480;SDS011;27217;51.220;5.308;2023-05-10T06:46:42;41.53;;;19.83;;
41480;SDS011;27217;51.220;5.308;2023-05-10T06:49:07;50.13;;;22.27;;
41480;SDS011;27217;51.220;5.308;2023-05-10T06:51:33;46.60;;;21.15;;
41480;SDS011;27217;51.220;5.308;2023-05-10T06:53:59;47.38;;;21.00;;
41480;SDS011;27217;51.220;5.308;2023-05-10T06:56:25;44.38;;;21.85;;
41480;SDS011;27217;51.220;5.308;2023-05-10T06:58:51;43.30;;;20.85;;
41480;SDS011;27217;51.220;5.308;2023-05-10T07:01:16;37.38;;;18.05;;
41480;SDS011;27217;51.220;5.308;2023-05-10T07:03:42;40.03;;;19.50;;
41480;SDS011;27217;51.220;5.308;2023-05-10T07:06:08;38.33;;;17.88;;
41480;SDS011;27217;51.220;5.308;2023-05-10T07:08:34;37.33;;;16.88;;
41480;SDS011;27217;51.220;5.308;2023-05-10T07:11:03;46.67;;;18.60;;
41480;SDS011;27217;51.220;5.308;2023-05-10T07:13:32;38.22;;;18.27;;
41480;SDS011;27217;51.220;5.308;2023-05-10T07:15:58;35.03;;;18.08;;
41480;SDS011;27217;51.220;5.308;2023-05-10T07:18:25;42.70;;;20.05;;
41480;SDS011;27217;51.220;5.308;2023-05-10T07:20:51;48.67;;;21.15;;
41480;SDS011;27217;51.220;5.308;2023-05-10T07:23:17;49.25;;;21.17;;
41480;SDS011;27217;51.220;5.308;2023-05-10T07:25:46;40.05;;;19.80;;
41480;SDS011;27217;51.220;5.308;2023-05-10T07:28:16;45.47;;;20.20;;
41480;SDS011;27217;51.220;5.308;2023-05-10T07:30:42;39.92;;;17.42;;
41480;SDS011;27217;51.220;5.308;2023-05-10T07:33:08;36.40;;;18.48;;
41480;SDS011;27217;51.220;5.308;2023-05-10T07:35:36;40.22;;;17.88;;
41480;SDS011;27217;51.220;5.308;2023-05-10T07:38:02;39.78;;;18.42;;
41480;SDS011;27217;51.220;5.308;2023-05-10T07:40:28;38.47;;;18.02;;
41480;SDS011;27217;51.220;5.308;2023-05-10T07:42:56;35.60;;;15.82;;
41480;SDS011;27217;51.220;5.308;2023-05-10T07:45:23;34.25;;;17.33;;
41480;SDS011;27217;51.220;5.308;2023-05-10T07:47:49;34.15;;;16.15;;
41480;SDS011;27217;51.220;5.308;2023-05-10T07:50:15;25.88;;;15.05;;
41480;SDS011;27217;51.220;5.308;2023-05-10T07:52:41;41.47;;;16.38;;
41480;SDS011;27217;51.220;5.308;2023-05-10T07:55:07;33.97;;;17.13;;
41480;SDS011;27217;51.220;5.308;2023-05-10T07:57:34;31.67;;;14.40;;
41480;SDS011;27217;51.220;5.308;2023-05-10T08:00:00;21.83;;;10.70;;
41480;SDS011;27217;51.220;5.308;2023-05-10T08:02:26;26.00;;;13.25;;
41480;SDS011;27217;51.220;5.308;2023-05-10T08:04:51;22.50;;;11.45;;
41480;SDS011;27217;51.220;5.308;2023-05-10T08:07:17;22.80;;;11.95;;
41480;SDS011;27217;51.220;5.308;2023-05-10T08:09:44;26.35;;;12.23;;
41480;SDS011;27217;51.220;5.308;2023-05-10T08:12:10;16.75;;;9.60;;
41480;SDS011;27217;51.220;5.308;2023-05-10T08:14:36;18.42;;;9.68;;
41480;SDS011;27217;51.220;5.308;2023-05-10T08:17:02;20.75;;;9.95;;
41480;SDS011;27217;51.220;5.308;2023-05-10T08:19:29;16.13;;;8.88;;
41480;SDS011;27217;51.220;5.308;2023-05-10T08:21:55;15.85;;;8.07;;
41480;SDS011;27217;51.220;5.308;2023-05-10T08:24:21;13.18;;;7.57;;
41480;SDS011;27217;51.220;5.308;2023-05-10T08:26:47;16.65;;;7.13;;
41480;SDS011;27217;51.220;5.308;2023-05-10T08:29:14;12.27;;;6.47;;
41480;SDS011;27217;51.220;5.308;2023-05-10T08:31:40;12.88;;;7.13;;
41480;SDS011;27217;51.220;5.308;2023-05-10T08:34:06;9.38;;;6.53;;
41480;SDS011;27217;51.220;5.308;2023-05-10T08:36:32;12.32;;;6.55;;
41480;SDS011;27217;51.220;5.308;2023-05-10T08:38:58;13.32;;;7.40;;
41480;SDS011;27217;51.220;5.308;2023-05-10T08:41:24;15.60;;;7.20;;
41480;SDS011;27217;51.220;5.308;2023-05-10T08:43:53;12.43;;;5.85;;
41480;SDS011;27217;51.220;5.308;2023-05-10T08:46:20;19.95;;;6.50;;
41480;SDS011;27217;51.220;5.308;2023-05-10T08:48:48;8.23;;;5.93;;
41480;SDS011;27217;51.220;5.308;2023-05-10T08:51:21;13.52;;;6.18;;
41480;SDS011;27217;51.220;5.308;2023-05-10T08:53:51;7.75;;;5.03;;
41480;SDS011;27217;51.220;5.308;2023-05-10T08:56:17;12.35;;;5.32;;
41480;SDS011;27217;51.220;5.308;2023-05-10T08:58:45;10.55;;;5.35;;
41480;SDS011;27217;51.220;5.308;2023-05-10T09:01:11;10.05;;;5.15;;
41480;SDS011;27217;51.220;5.308;2023-05-10T09:03:38;7.50;;;4.65;;
41480;SDS011;27217;51.220;5.308;2023-05-10T09:06:05;8.38;;;4.97;;
41480;SDS011;27217;51.220;5.308;2023-05-10T09:08:31;9.73;;;5.78;;
41480;SDS011;27217;51.220;5.308;2023-05-10T09:10:58;11.20;;;6.50;;
41480;SDS011;27217;51.220;5.308;2023-05-10T09:13:26;11.45;;;6.55;;
41480;SDS011;27217;51.220;5.308;2023-05-10T09:15:52;14.23;;;7.40;;
41480;SDS011;27217;51.220;5.308;2023-05-10T09:18:18;16.88;;;8.80;;
41480;SDS011;27217;51.220;5.308;2023-05-10T09:20:44;13.82;;;8.43;;
41480;SDS011;27217;51.220;5.308;2023-05-10T09:23:10;17.67;;;11.13;;
41480;SDS011;27217;51.220;5.308;2023-05-10T09:25:36;19.20;;;11.25;;
41480;SDS011;27217;51.220;5.308;2023-05-10T09:28:05;22.23;;;13.68;;
41480;SDS011;27217;51.220;5.308;2023-05-10T09:30:32;29.58;;;15.45;;
41480;SDS011;27217;51.220;5.308;2023-05-10T09:32:58;26.45;;;14.80;;
41480;SDS011;27217;51.220;5.308;2023-05-10T09:35:25;30.67;;;16.27;;
41480;SDS011;27217;51.220;5.308;2023-05-10T09:37:52;32.75;;;17.55;;
41480;SDS011;27217;51.220;5.308;2023-05-10T09:40:20;28.30;;;16.05;;
41480;SDS011;27217;51.220;5.308;2023-05-10T09:42:57;31.85;;;16.73;;
41480;SDS011;27217;51.220;5.308;2023-05-10T09:45:23;25.50;;;15.00;;
41480;SDS011;27217;51.220;5.308;2023-05-10T09:47:50;27.27;;;15.20;;
41480;SDS011;27217;51.220;5.308;2023-05-10T09:50:16;26.63;;;14.88;;
41480;SDS011;27217;51.220;5.308;2023-05-10T09:52:49;27.58;;;15.23;;
41480;SDS011;27217;51.220;5.308;2023-05-10T09:55:20;30.27;;;17.58;;
41480;SDS011;27217;51.220;5.308;2023-05-10T09:57:48;26.80;;;14.85;;
41480;SDS011;27217;51.220;5.308;2023-05-10T10:00:18;29.77;;;16.85;;
41480;SDS011;27217;51.220;5.308;2023-05-10T10:02:48;23.50;;;16.23;;
41480;SDS011;27217;51.220;5.308;2023-05-10T10:05:20;28.15;;;15.98;;
41480;SDS011;27217;51.220;5.308;2023-05-10T10:07:46;29.70;;;16.67;;
41480;SDS011;27217;51.220;5.308;2023-05-10T10:10:12;25.52;;;16.25;;
41480;SDS011;27217;51.220;5.308;2023-05-10T10:12:38;28.65;;;16.33;;
41480;SDS011;27217;51.220;5.308;2023-05-10T10:15:06;23.55;;;15.23;;
41480;SDS011;27217;51.220;5.308;2023-05-10T10:17:34;22.25;;;15.75;;
41480;SDS011;27217;51.220;5.308;2023-05-10T10:20:03;25.20;;;15.70;;
41480;SDS011;27217;51.220;5.308;2023-05-10T10:22:29;29.75;;;15.20;;
41480;SDS011;27217;51.220;5.308;2023-05-10T10:24:55;24.67;;;15.20;;
41480;SDS011;27217;51.220;5.308;2023-05-10T10:27:42;23.80;;;13.85;;
41480;SDS011;27217;51.220;5.308;2023-05-10T10:35:35;25.38;;;13.73;;
41480;SDS011;27217;51.220;5.308;2023-05-10T10:38:02;26.33;;;15.50;;
41480;SDS011;27217;51.220;5.308;2023-05-10T10:40:28;27.40;;;14.27;;
41480;SDS011;27217;51.220;5.308;2023-05-10T10:42:58;30.83;;;14.35;;
41480;SDS011;27217;51.220;5.308;2023-05-10T10:45:43;23.50;;;12.75;;
41480;SDS011;27217;51.220;5.308;2023-05-10T10:48:32;27.30;;;14.30;;
41480;SDS011;27217;51.220;5.308;2023-05-10T10:50:58;22.33;;;11.05;;
41480;SDS011;27217;51.220;5.308;2023-05-10T10:53:27;23.75;;;12.48;;
41480;SDS011;27217;51.220;5.308;2023-05-10T10:56:02;16.13;;;11.55;;
41480;SDS011;27217;51.220;5.308;2023-05-10T10:58:34;17.47;;;12.03;;
41480;SDS011;27217;51.220;5.308;2023-05-10T11:01:36;18.00;;;12.32;;
41480;SDS011;27217;51.220;5.308;2023-05-10T11:06:29;25.10;;;13.55;;
41480;SDS011;27217;51.220;5.308;2023-05-10T11:08:59;20.20;;;12.52;;
41480;SDS011;27217;51.220;5.308;2023-05-10T11:11:31;20.55;;;12.35;;
41480;SDS011;27217;51.220;5.308;2023-05-10T11:14:02;20.42;;;12.30;;
41480;SDS011;27217;51.220;5.308;2023-05-10T11:16:29;24.52;;;13.13;;
41480;SDS011;27217;51.220;5.308;2023-05-10T11:19:07;22.08;;;12.10;;
41480;SDS011;27217;51.220;5.308;2023-05-10T11:21:44;25.23;;;12.88;;
41480;SDS011;27217;51.220;5.308;2023-05-10T11:24:15;24.77;;;12.70;;
41480;SDS011;27217;51.220;5.308;2023-05-10T11:26:42;24.33;;;10.98;;
41480;SDS011;27217;51.220;5.308;2023-05-10T11:29:08;18.70;;;11.77;;
41480;SDS011;27217;51.220;5.308;2023-05-10T11:31:34;25.70;;;11.52;;
41480;SDS011;27217;51.220;5.308;2023-05-10T11:34:06;22.73;;;12.23;;
41480;SDS011;27217;51.220;5.308;2023-05-10T11:36:33;20.13;;;9.85;;
41480;SDS011;27217;51.220;5.308;2023-05-10T11:39:01;19.15;;;10.48;;
41480;SDS011;27217;51.220;5.308;2023-05-10T11:41:28;20.85;;;10.65;;
41480;SDS011;27217;51.220;5.308;2023-05-10T11:43:55;21.65;;;10.70;;
41480;SDS011;27217;51.220;5.308;2023-05-10T11:46:23;18.10;;;9.05;;
41480;SDS011;27217;51.220;5.308;2023-05-10T11:48:52;20.38;;;8.85;;
41480;SDS011;27217;51.220;5.308;2023-05-10T11:51:20;15.60;;;9.27;;
41480;SDS011;27217;51.220;5.308;2023-05-10T11:53:53;17.60;;;8.75;;
41480;SDS011;27217;51.220;5.308;2023-05-10T11:56:20;16.85;;;9.18;;
41480;SDS011;27217;51.220;5.308;2023-05-10T12:01:21;13.52;;;7.82;;
41480;SDS011;27217;51.220;5.308;2023-05-10T12:03:49;14.43;;;8.10;;
41480;SDS011;27217;51.220;5.308;2023-05-10T12:06:18;18.45;;;7.80;;
41480;SDS011;27217;51.220;5.308;2023-05-10T12:08:45;13.00;;;8.13;;
41480;SDS011;27217;51.220;5.308;2023-05-10T12:11:12;13.27;;;7.43;;
41480;SDS011;27217;51.220;5.308;2023-05-10T12:13:40;15.88;;;8.55;;
41480;SDS011;27217;51.220;5.308;2023-05-10T12:16:21;18.83;;;9.07;;
41480;SDS011;27217;51.220;5.308;2023-05-10T12:18:49;14.73;;;9.02;;
41480;SDS011;27217;51.220;5.308;2023-05-10T12:21:21;14.52;;;8.50;;
41480;SDS011;27217;51.220;5.308;2023-05-10T12:23:48;20.33;;;8.57;;
41480;SDS011;27217;51.220;5.308;2023-05-10T12:26:16;14.15;;;8.07;;
41480;SDS011;27217;51.220;5.308;2023-05-10T12:28:42;14.18;;;8.93;;
41480;SDS011;27217;51.220;5.308;2023-05-10T12:31:08;12.00;;;7.72;;
41480;SDS011;27217;51.220;5.308;2023-05-10T12:33:41;14.50;;;8.18;;
41480;SDS011;27217;51.220;5.308;2023-05-10T12:36:08;22.17;;;8.43;;
41480;SDS011;27217;51.220;5.308;2023-05-10T12:41:06;12.57;;;8.20;;
41480;SDS011;27217;51.220;5.308;2023-05-10T12:43:33;9.45;;;6.75;;
41480;SDS011;27217;51.220;5.308;2023-05-10T12:46:07;11.65;;;7.38;;
41480;SDS011;27217;51.220;5.308;2023-05-10T12:48:34;9.27;;;6.88;;
41480;SDS011;27217;51.220;5.308;2023-05-10T12:51:02;12.98;;;8.20;;
41480;SDS011;27217;51.220;5.308;2023-05-10T12:53:28;10.50;;;6.90;;
41480;SDS011;27217;51.220;5.308;2023-05-10T12:55:54;10.55;;;6.88;;
41480;SDS011;27217;51.220;5.308;2023-05-10T12:58:20;10.57;;;6.82;;
41480;SDS011;27217;51.220;5.308;2023-05-10T13:00:46;11.65;;;6.45;;
41480;SDS011;27217;51.220;5.308;2023-05-10T13:03:12;9.23;;;6.78;;
41480;SDS011;27217;51.220;5.308;2023-05-10T13:05:38;10.20;;;6.80;;
41480;SDS011;27217;51.220;5.308;2023-05-10T13:08:04;11.15;;;7.70;;
41480;SDS011;27217;51.220;5.308;2023-05-10T13:10:32;11.63;;;7.00;;
41480;SDS011;27217;51.220;5.308;2023-05-10T13:12:58;11.35;;;6.32;;
41480;SDS011;27217;51.220;5.308;2023-05-10T13:15:24;12.30;;;5.97;;
41480;SDS011;27217;51.220;5.308;2023-05-10T13:17:50;8.60;;;6.38;;
41480;SDS011;27217;51.220;5.308;2023-05-10T13:20:16;12.60;;;6.15;;
41480;SDS011;27217;51.220;5.308;2023-05-10T13:22:43;10.45;;;5.28;;
41480;SDS011;27217;51.220;5.308;2023-05-10T13:25:09;8.52;;;4.80;;
41480;SDS011;27217;51.220;5.308;2023-05-10T13:27:36;8.95;;;5.65;;
41480;SDS011;27217;51.220;5.308;2023-05-10T13:30:02;6.43;;;4.85;;
41480;SDS011;27217;51.220;5.308;2023-05-10T13:32:29;5.93;;;4.35;;
41480;SDS011;27217;51.220;5.308;2023-05-10T13:34:55;9.57;;;4.97;;
41480;SDS011;27217;51.220;5.308;2023-05-10T13:37:20;9.45;;;5.55;;
41480;SDS011;27217;51.220;5.308;2023-05-10T13:39:47;10.20;;;5.28;;
41480;SDS011;27217;51.220;5.308;2023-05-10T13:42:13;9.65;;;5.57;;
41480;SDS011;27217;51.220;5.308;2023-05-10T13:44:39;12.52;;;6.28;;
41480;SDS011;27217;51.220;5.308;2023-05-10T13:47:05;15.02;;;7.28;;
41480;SDS011;27217;51.220;5.308;2023-05-10T13:49:31;7.18;;;5.10;;
41480;SDS011;27217;51.220;5.308;2023-05-10T13:51:57;11.75;;;5.90;;
41480;SDS011;27217;51.220;5.308;2023-05-10T13:54:23;9.32;;;6.20;;
41480;SDS011;27217;51.220;5.308;2023-05-10T13:56:49;13.15;;;5.88;;
41480;SDS011;27217;51.220;5.308;2023-05-10T13:59:15;8.55;;;6.43;;
41480;SDS011;27217;51.220;5.308;2023-05-10T14:01:42;8.13;;;5.90;;
41480;SDS011;27217;51.220;5.308;2023-05-10T14:04:08;10.30;;;6.00;;
41480;SDS011;27217;51.220;5.308;2023-05-10T14:06:38;7.22;;;5.20;;
41480;SDS011;27217;51.220;5.308;2023-05-10T14:09:04;10.50;;;5.82;;
41480;SDS011;27217;51.220;5.308;2023-05-10T14:11:30;10.45;;;5.75;;
41480;SDS011;27217;51.220;5.308;2023-05-10T14:13:56;8.88;;;5.88;;
41480;SDS011;27217;51.220;5.308;2023-05-10T14:16:22;8.48;;;4.95;;
41480;SDS011;27217;51.220;5.308;2023-05-10T14:18:48;11.45;;;4.80;;
41480;SDS011;27217;51.220;5.308;2023-05-10T14:21:14;10.55;;;5.35;;
41480;SDS011;27217;51.220;5.308;2023-05-10T14:23:40;7.95;;;4.90;;
41480;SDS011;27217;51.220;5.308;2023-05-10T14:26:06;9.55;;;5.03;;
41480;SDS011;27217;51.220;5.308;2023-05-10T14:28:32;8.30;;;5.47;;
41480;SDS011;27217;51.220;5.308;2023-05-10T14:30:58;10.88;;;6.38;;
41480;SDS011;27217;51.220;5.308;2023-05-10T14:33:24;8.23;;;5.35;;
41480;SDS011;27217;51.220;5.308;2023-05-10T14:35:50;8.52;;;6.00;;
41480;SDS011;27217;51.220;5.308;2023-05-10T14:38:16;7.90;;;5.25;;
41480;SDS011;27217;51.220;5.308;2023-05-10T14:40:42;8.55;;;5.43;;
41480;SDS011;27217;51.220;5.308;2023-05-10T14:43:08;7.03;;;5.10;;
41480;SDS011;27217;51.220;5.308;2023-05-10T14:45:34;10.35;;;5.45;;
41480;SDS011;27217;51.220;5.308;2023-05-10T14:48:00;11.07;;;7.03;;
41480;SDS011;27217;51.220;5.308;2023-05-10T14:50:29;9.02;;;5.95;;
41480;SDS011;27217;51.220;5.308;2023-05-10T14:52:55;9.60;;;6.05;;
41480;SDS011;27217;51.220;5.308;2023-05-10T14:55:21;8.85;;;6.35;;
41480;SDS011;27217;51.220;5.308;2023-05-10T14:57:48;12.10;;;6.10;;
41480;SDS011;27217;51.220;5.308;2023-05-10T15:00:15;12.75;;;6.90;;
41480;SDS011;27217;51.220;5.308;2023-05-10T15:02:44;12.05;;;6.93;;
41480;SDS011;27217;51.220;5.308;2023-05-10T15:05:10;9.13;;;6.15;;
41480;SDS011;27217;51.220;5.308;2023-05-10T15:07:36;13.38;;;5.88;;
41480;SDS011;27217;51.220;5.308;2023-05-10T15:10:02;8.80;;;5.10;;